sensor_id;sensor_type;location;lat;lon;timestamp;temperature;humidity
13982;DHT22;7065;50.880;5.502;2022-12-10T00:01:12;-3.00;99.90
13982;DHT22;7065;50.880;5.502;2022-12-10T00:03:39;-3.10;99.90
13982;DHT22;7065;50.880;5.502;2022-12-10T00:06:08;-3.20;99.90
13982;DHT22;7065;50.880;5.502;2022-12-10T00:08:35;-3.20;99.90
13982;DHT22;7065;50.880;5.502;2022-12-10T00:11:03;-3.30;99.90
13982;DHT22;7065;50.880;5.502;2022-12-10T00:13:29;-3.30;99.90
13982;DHT22;7065;50.880;5.502;2022-12-10T00:15:55;-3.40;99.90
13982;DHT22;7065;50.880;5.502;2022-12-10T00:18:21;-3.40;99.90
13982;DHT22;7065;50.880;5.502;2022-12-10T00:20:46;-3.40;99.90
13982;DHT22;7065;50.880;5.502;2022-12-10T00:23:12;-3.40;99.90
13982;DHT22;7065;50.880;5.502;2022-12-10T00:25:38;-3.40;99.90
13982;DHT22;7065;50.880;5.502;2022-12-10T00:28:04;-3.40;99.90
13982;DHT22;7065;50.880;5.502;2022-12-10T00:30:29;-3.30;99.90
13982;DHT22;7065;50.880;5.502;2022-12-10T00:32:55;-3.20;99.90
13982;DHT22;7065;50.880;5.502;2022-12-10T00:35:21;-3.20;99.90
13982;DHT22;7065;50.880;5.502;2022-12-10T00:37:47;-3.20;99.90
13982;DHT22;7065;50.880;5.502;2022-12-10T00:40:12;-3.20;99.90
13982;DHT22;7065;50.880;5.502;2022-12-10T00:42:38;-3.20;99.90
13982;DHT22;7065;50.880;5.502;2022-12-10T00:45:04;-3.10;99.90
13982;DHT22;7065;50.880;5.502;2022-12-10T00:47:30;-3.10;99.90
13982;DHT22;7065;50.880;5.502;2022-12-10T00:49:56;-3.20;99.90
13982;DHT22;7065;50.880;5.502;2022-12-10T00:52:22;-3.20;99.90
13982;DHT22;7065;50.880;5.502;2022-12-10T00:54:48;-3.20;99.90
13982;DHT22;7065;50.880;5.502;2022-12-10T00:57:13;-3.20;99.90
13982;DHT22;7065;50.880;5.502;2022-12-10T00:59:39;-3.20;99.90
13982;DHT22;7065;50.880;5.502;2022-12-10T01:02:05;-3.20;99.90
13982;DHT22;7065;50.880;5.502;2022-12-10T01:04:30;-3.10;99.90
13982;DHT22;7065;50.880;5.502;2022-12-10T01:06:56;-2.90;99.90
13982;DHT22;7065;50.880;5.502;2022-12-10T01:09:25;-2.80;99.90
13982;DHT22;7065;50.880;5.502;2022-12-10T01:11:52;-2.70;99.90
13982;DHT22;7065;50.880;5.502;2022-12-10T01:14:23;-2.60;99.90
13982;DHT22;7065;50.880;5.502;2022-12-10T01:16:51;-2.40;99.90
13982;DHT22;7065;50.880;5.502;2022-12-10T01:19:18;-2.30;99.90
13982;DHT22;7065;50.880;5.502;2022-12-10T01:21:44;-2.30;99.90
13982;DHT22;7065;50.880;5.502;2022-12-10T01:24:10;-2.20;99.90
13982;DHT22;7065;50.880;5.502;2022-12-10T01:26:36;-2.10;99.90
13982;DHT22;7065;50.880;5.502;2022-12-10T01:29:03;-2.00;99.90
13982;DHT22;7065;50.880;5.502;2022-12-10T01:31:33;-1.90;99.90
13982;DHT22;7065;50.880;5.502;2022-12-10T01:34:00;-1.90;99.90
13982;DHT22;7065;50.880;5.502;2022-12-10T01:36:28;-1.80;99.90
13982;DHT22;7065;50.880;5.502;2022-12-10T01:38:54;-1.80;99.90
13982;DHT22;7065;50.880;5.502;2022-12-10T01:41:31;-1.80;99.90
13982;DHT22;7065;50.880;5.502;2022-12-10T01:44:02;-1.70;99.90
13982;DHT22;7065;50.880;5.502;2022-12-10T01:46:30;-1.70;99.90
13982;DHT22;7065;50.880;5.502;2022-12-10T01:48:58;-1.60;99.90
13982;DHT22;7065;50.880;5.502;2022-12-10T01:51:26;-1.60;99.90
13982;DHT22;7065;50.880;5.502;2022-12-10T01:53:52;-1.60;99.90
13982;DHT22;7065;50.880;5.502;2022-12-10T01:56:19;-1.60;99.90
13982;DHT22;7065;50.880;5.502;2022-12-10T01:58:46;-1.60;99.90
13982;DHT22;7065;50.880;5.502;2022-12-10T02:06:31;-1.50;99.90
13982;DHT22;7065;50.880;5.502;2022-12-10T02:09:06;-1.50;99.90
13982;DHT22;7065;50.880;5.502;2022-12-10T02:14:53;-1.40;99.90
13982;DHT22;7065;50.880;5.502;2022-12-10T02:20:25;-1.30;99.90
13982;DHT22;7065;50.880;5.502;2022-12-10T02:22:55;-1.20;99.90
13982;DHT22;7065;50.880;5.502;2022-12-10T02:25:28;-1.20;99.90
13982;DHT22;7065;50.880;5.502;2022-12-10T02:30:33;-1.20;99.90
13982;DHT22;7065;50.880;5.502;2022-12-10T02:33:01;-1.10;99.90
13982;DHT22;7065;50.880;5.502;2022-12-10T02:35:31;-1.10;99.90
13982;DHT22;7065;50.880;5.502;2022-12-10T02:38:12;-1.10;99.90
13982;DHT22;7065;50.880;5.502;2022-12-10T02:40:45;-1.10;99.90
13982;DHT22;7065;50.880;5.502;2022-12-10T02:43:13;-1.10;99.90
13982;DHT22;7065;50.880;5.502;2022-12-10T02:45:39;-1.10;99.90
13982;DHT22;7065;50.880;5.502;2022-12-10T02:48:06;-1.10;99.90
13982;DHT22;7065;50.880;5.502;2022-12-10T02:50:33;-1.10;99.90
13982;DHT22;7065;50.880;5.502;2022-12-10T02:52:59;-1.10;99.90
13982;DHT22;7065;50.880;5.502;2022-12-10T02:55:25;-1.10;99.90
13982;DHT22;7065;50.880;5.502;2022-12-10T02:58:06;-1.10;99.90
13982;DHT22;7065;50.880;5.502;2022-12-10T03:00:45;-1.10;99.90
13982;DHT22;7065;50.880;5.502;2022-12-10T03:03:38;-1.00;99.90
13982;DHT22;7065;50.880;5.502;2022-12-10T03:06:27;-1.00;99.90
13982;DHT22;7065;50.880;5.502;2022-12-10T03:09:13;-1.10;99.90
13982;DHT22;7065;50.880;5.502;2022-12-10T03:11:43;-1.00;99.90
13982;DHT22;7065;50.880;5.502;2022-12-10T03:14:20;-1.00;99.90
13982;DHT22;7065;50.880;5.502;2022-12-10T03:16:55;-1.00;99.90
13982;DHT22;7065;50.880;5.502;2022-12-10T03:19:26;-1.00;99.90
13982;DHT22;7065;50.880;5.502;2022-12-10T03:21:53;-1.00;99.90
13982;DHT22;7065;50.880;5.502;2022-12-10T03:24:21;-1.00;99.90
13982;DHT22;7065;50.880;5.502;2022-12-10T03:26:48;-1.00;99.90
13982;DHT22;7065;50.880;5.502;2022-12-10T03:29:23;-1.00;99.90
13982;DHT22;7065;50.880;5.502;2022-12-10T03:31:52;-1.00;99.90
13982;DHT22;7065;50.880;5.502;2022-12-10T03:34:18;-1.00;99.90
13982;DHT22;7065;50.880;5.502;2022-12-10T03:36:45;-1.00;99.90
13982;DHT22;7065;50.880;5.502;2022-12-10T03:39:11;-1.00;99.90
13982;DHT22;7065;50.880;5.502;2022-12-10T03:41:38;-1.00;99.90
13982;DHT22;7065;50.880;5.502;2022-12-10T03:44:03;-1.00;99.90
13982;DHT22;7065;50.880;5.502;2022-12-10T03:46:30;-0.90;99.90
13982;DHT22;7065;50.880;5.502;2022-12-10T03:48:57;-1.00;99.90
13982;DHT22;7065;50.880;5.502;2022-12-10T03:51:23;-1.00;99.90
13982;DHT22;7065;50.880;5.502;2022-12-10T03:53:49;-1.00;99.90
13982;DHT22;7065;50.880;5.502;2022-12-10T03:56:15;-1.00;99.90
13982;DHT22;7065;50.880;5.502;2022-12-10T03:58:41;-1.00;99.90
13982;DHT22;7065;50.880;5.502;2022-12-10T04:01:07;-1.00;99.90
13982;DHT22;7065;50.880;5.502;2022-12-10T04:03:35;-1.00;99.90
13982;DHT22;7065;50.880;5.502;2022-12-10T04:06:07;-1.00;99.90
13982;DHT22;7065;50.880;5.502;2022-12-10T04:08:33;-1.00;99.90
13982;DHT22;7065;50.880;5.502;2022-12-10T04:11:08;-1.00;99.90
13982;DHT22;7065;50.880;5.502;2022-12-10T04:13:35;-0.90;99.90
13982;DHT22;7065;50.880;5.502;2022-12-10T04:16:21;-0.90;99.90
13982;DHT22;7065;50.880;5.502;2022-12-10T04:18:58;-0.90;99.90
13982;DHT22;7065;50.880;5.502;2022-12-10T04:21:24;-0.90;99.90
13982;DHT22;7065;50.880;5.502;2022-12-10T04:24:09;-0.90;99.90
13982;DHT22;7065;50.880;5.502;2022-12-10T04:26:55;-0.90;99.90
13982;DHT22;7065;50.880;5.502;2022-12-10T04:29:26;-0.90;99.90
13982;DHT22;7065;50.880;5.502;2022-12-10T04:31:53;-0.90;99.90
13982;DHT22;7065;50.880;5.502;2022-12-10T04:34:19;-0.90;99.90
13982;DHT22;7065;50.880;5.502;2022-12-10T04:36:45;-0.80;99.90
13982;DHT22;7065;50.880;5.502;2022-12-10T04:39:11;-0.80;99.90
13982;DHT22;7065;50.880;5.502;2022-12-10T04:41:43;-0.80;99.90
13982;DHT22;7065;50.880;5.502;2022-12-10T04:44:10;-0.90;99.90
13982;DHT22;7065;50.880;5.502;2022-12-10T04:46:36;-0.80;99.90
13982;DHT22;7065;50.880;5.502;2022-12-10T04:49:03;-0.80;99.90
13982;DHT22;7065;50.880;5.502;2022-12-10T04:51:31;-0.80;99.90
13982;DHT22;7065;50.880;5.502;2022-12-10T04:53:57;-0.90;99.90
13982;DHT22;7065;50.880;5.502;2022-12-10T04:56:23;-0.80;99.90
13982;DHT22;7065;50.880;5.502;2022-12-10T04:58:49;-0.80;99.90
13982;DHT22;7065;50.880;5.502;2022-12-10T05:01:15;-0.80;99.90
13982;DHT22;7065;50.880;5.502;2022-12-10T05:03:41;-0.80;99.90
13982;DHT22;7065;50.880;5.502;2022-12-10T05:06:10;-0.80;99.90
13982;DHT22;7065;50.880;5.502;2022-12-10T05:08:37;-0.80;99.90
13982;DHT22;7065;50.880;5.502;2022-12-10T05:11:05;-0.80;99.90
13982;DHT22;7065;50.880;5.502;2022-12-10T05:13:32;-0.80;99.90
13982;DHT22;7065;50.880;5.502;2022-12-10T05:15:58;-0.80;99.90
13982;DHT22;7065;50.880;5.502;2022-12-10T05:18:26;-0.80;99.90
13982;DHT22;7065;50.880;5.502;2022-12-10T05:20:51;-0.80;99.90
13982;DHT22;7065;50.880;5.502;2022-12-10T05:23:18;-0.80;99.90
13982;DHT22;7065;50.880;5.502;2022-12-10T05:26:05;-0.80;99.90
13982;DHT22;7065;50.880;5.502;2022-12-10T05:28:37;-0.80;99.90
13982;DHT22;7065;50.880;5.502;2022-12-10T05:31:05;-0.80;99.90
13982;DHT22;7065;50.880;5.502;2022-12-10T05:33:31;-0.90;99.90
13982;DHT22;7065;50.880;5.502;2022-12-10T05:35:59;-0.90;99.90
13982;DHT22;7065;50.880;5.502;2022-12-10T05:38:26;-0.80;99.90
13982;DHT22;7065;50.880;5.502;2022-12-10T05:40:52;-0.80;99.90
13982;DHT22;7065;50.880;5.502;2022-12-10T05:43:18;-0.80;99.90
13982;DHT22;7065;50.880;5.502;2022-12-10T05:45:44;-0.80;99.90
13982;DHT22;7065;50.880;5.502;2022-12-10T05:48:12;-0.90;99.90
13982;DHT22;7065;50.880;5.502;2022-12-10T05:50:38;-0.80;99.90
13982;DHT22;7065;50.880;5.502;2022-12-10T05:53:04;-0.80;99.90
13982;DHT22;7065;50.880;5.502;2022-12-10T05:55:29;-0.80;99.90
13982;DHT22;7065;50.880;5.502;2022-12-10T05:57:57;-0.80;99.90
13982;DHT22;7065;50.880;5.502;2022-12-10T06:00:23;-0.80;99.90
13982;DHT22;7065;50.880;5.502;2022-12-10T06:02:49;-0.80;99.90
13982;DHT22;7065;50.880;5.502;2022-12-10T06:05:15;-0.80;99.90
13982;DHT22;7065;50.880;5.502;2022-12-10T06:07:41;-0.80;99.90
13982;DHT22;7065;50.880;5.502;2022-12-10T06:10:08;-0.80;99.90
13982;DHT22;7065;50.880;5.502;2022-12-10T06:12:33;-0.70;99.90
13982;DHT22;7065;50.880;5.502;2022-12-10T06:14:59;-0.70;99.90
13982;DHT22;7065;50.880;5.502;2022-12-10T06:17:25;-0.70;99.90
13982;DHT22;7065;50.880;5.502;2022-12-10T06:19:50;-0.70;99.90
13982;DHT22;7065;50.880;5.502;2022-12-10T06:22:16;-0.70;99.90
13982;DHT22;7065;50.880;5.502;2022-12-10T06:24:42;-0.70;99.90
13982;DHT22;7065;50.880;5.502;2022-12-10T06:27:08;-0.70;99.90
13982;DHT22;7065;50.880;5.502;2022-12-10T06:29:33;-0.70;99.90
13982;DHT22;7065;50.880;5.502;2022-12-10T06:31:59;-0.70;99.90
13982;DHT22;7065;50.880;5.502;2022-12-10T06:34:25;-0.70;99.90
13982;DHT22;7065;50.880;5.502;2022-12-10T06:36:50;-0.70;99.90
13982;DHT22;7065;50.880;5.502;2022-12-10T06:39:16;-0.70;99.90
13982;DHT22;7065;50.880;5.502;2022-12-10T06:41:42;-0.70;99.90
13982;DHT22;7065;50.880;5.502;2022-12-10T06:44:10;-0.70;99.90
13982;DHT22;7065;50.880;5.502;2022-12-10T06:46:36;-0.70;99.90
13982;DHT22;7065;50.880;5.502;2022-12-10T06:49:02;-0.70;99.90
13982;DHT22;7065;50.880;5.502;2022-12-10T06:51:28;-0.70;99.90
13982;DHT22;7065;50.880;5.502;2022-12-10T06:53:54;-0.70;99.90
13982;DHT22;7065;50.880;5.502;2022-12-10T06:56:20;-0.70;99.90
13982;DHT22;7065;50.880;5.502;2022-12-10T06:58:47;-0.70;99.90
13982;DHT22;7065;50.880;5.502;2022-12-10T07:01:17;-0.70;99.90
13982;DHT22;7065;50.880;5.502;2022-12-10T07:03:54;-0.60;99.90
13982;DHT22;7065;50.880;5.502;2022-12-10T07:06:21;-0.70;99.90
13982;DHT22;7065;50.880;5.502;2022-12-10T07:08:47;-0.60;99.90
13982;DHT22;7065;50.880;5.502;2022-12-10T07:11:15;-0.60;99.90
13982;DHT22;7065;50.880;5.502;2022-12-10T07:13:41;-0.60;99.90
13982;DHT22;7065;50.880;5.502;2022-12-10T07:16:14;-0.60;99.90
13982;DHT22;7065;50.880;5.502;2022-12-10T07:18:40;-0.70;99.90
13982;DHT22;7065;50.880;5.502;2022-12-10T07:21:27;-0.70;99.90
13982;DHT22;7065;50.880;5.502;2022-12-10T07:23:54;-0.60;99.90
13982;DHT22;7065;50.880;5.502;2022-12-10T07:26:23;-0.70;99.90
13982;DHT22;7065;50.880;5.502;2022-12-10T07:28:49;-0.70;99.90
13982;DHT22;7065;50.880;5.502;2022-12-10T07:31:16;-0.70;99.90
13982;DHT22;7065;50.880;5.502;2022-12-10T07:33:41;-0.70;99.90
13982;DHT22;7065;50.880;5.502;2022-12-10T07:36:11;-0.70;99.90
13982;DHT22;7065;50.880;5.502;2022-12-10T07:38:37;-0.60;99.90
13982;DHT22;7065;50.880;5.502;2022-12-10T07:41:05;-0.60;99.90
13982;DHT22;7065;50.880;5.502;2022-12-10T07:43:33;-0.60;99.90
13982;DHT22;7065;50.880;5.502;2022-12-10T07:46:07;-0.60;99.90
13982;DHT22;7065;50.880;5.502;2022-12-10T07:48:34;-0.60;99.90
13982;DHT22;7065;50.880;5.502;2022-12-10T07:51:00;-0.60;99.90
13982;DHT22;7065;50.880;5.502;2022-12-10T07:53:26;-0.60;99.90
13982;DHT22;7065;50.880;5.502;2022-12-10T07:55:51;-0.60;99.90
13982;DHT22;7065;50.880;5.502;2022-12-10T07:58:17;-0.60;99.90
13982;DHT22;7065;50.880;5.502;2022-12-10T08:00:43;-0.60;99.90
13982;DHT22;7065;50.880;5.502;2022-12-10T08:03:08;-0.60;99.90
13982;DHT22;7065;50.880;5.502;2022-12-10T08:05:34;-0.50;99.90
13982;DHT22;7065;50.880;5.502;2022-12-10T08:08:00;-0.50;99.90
13982;DHT22;7065;50.880;5.502;2022-12-10T08:10:26;-0.50;99.90
13982;DHT22;7065;50.880;5.502;2022-12-10T08:12:52;-0.50;99.90
13982;DHT22;7065;50.880;5.502;2022-12-10T08:15:17;-0.50;99.90
13982;DHT22;7065;50.880;5.502;2022-12-10T08:17:43;-0.60;99.90
13982;DHT22;7065;50.880;5.502;2022-12-10T08:20:09;-0.50;99.90
13982;DHT22;7065;50.880;5.502;2022-12-10T08:22:35;-0.50;99.90
13982;DHT22;7065;50.880;5.502;2022-12-10T08:25:01;-0.60;99.90
13982;DHT22;7065;50.880;5.502;2022-12-10T08:27:27;-0.60;99.90
13982;DHT22;7065;50.880;5.502;2022-12-10T08:29:52;-0.60;99.90
13982;DHT22;7065;50.880;5.502;2022-12-10T08:32:18;-0.60;99.90
13982;DHT22;7065;50.880;5.502;2022-12-10T08:34:44;-0.50;99.90
13982;DHT22;7065;50.880;5.502;2022-12-10T08:37:10;-0.50;99.90
13982;DHT22;7065;50.880;5.502;2022-12-10T08:39:36;-0.50;99.90
13982;DHT22;7065;50.880;5.502;2022-12-10T08:42:02;-0.50;99.90
13982;DHT22;7065;50.880;5.502;2022-12-10T08:44:28;-0.40;99.90
13982;DHT22;7065;50.880;5.502;2022-12-10T08:46:54;-0.30;99.90
13982;DHT22;7065;50.880;5.502;2022-12-10T08:49:19;-0.30;99.90
13982;DHT22;7065;50.880;5.502;2022-12-10T08:51:46;-0.30;99.90
13982;DHT22;7065;50.880;5.502;2022-12-10T08:54:11;-0.30;99.90
13982;DHT22;7065;50.880;5.502;2022-12-10T08:56:37;-0.20;99.90
13982;DHT22;7065;50.880;5.502;2022-12-10T08:59:05;-0.20;99.90
13982;DHT22;7065;50.880;5.502;2022-12-10T09:01:31;-0.20;99.90
13982;DHT22;7065;50.880;5.502;2022-12-10T09:03:57;-0.20;99.90
13982;DHT22;7065;50.880;5.502;2022-12-10T09:06:23;-0.20;99.90
13982;DHT22;7065;50.880;5.502;2022-12-10T09:08:49;-0.20;99.90
13982;DHT22;7065;50.880;5.502;2022-12-10T09:11:25;-0.10;99.90
13982;DHT22;7065;50.880;5.502;2022-12-10T09:13:51;-0.10;99.90
13982;DHT22;7065;50.880;5.502;2022-12-10T09:16:17;-0.20;99.90
13982;DHT22;7065;50.880;5.502;2022-12-10T09:18:43;-0.20;99.90
13982;DHT22;7065;50.880;5.502;2022-12-10T09:21:11;-0.20;99.90
13982;DHT22;7065;50.880;5.502;2022-12-10T09:23:38;-0.10;99.90
13982;DHT22;7065;50.880;5.502;2022-12-10T09:26:09;-0.10;99.90
13982;DHT22;7065;50.880;5.502;2022-12-10T09:28:36;-0.10;99.90
13982;DHT22;7065;50.880;5.502;2022-12-10T09:31:03;-0.20;99.90
13982;DHT22;7065;50.880;5.502;2022-12-10T09:33:30;-0.10;99.90
13982;DHT22;7065;50.880;5.502;2022-12-10T09:35:56;-0.10;99.90
13982;DHT22;7065;50.880;5.502;2022-12-10T09:38:22;-0.10;99.90
13982;DHT22;7065;50.880;5.502;2022-12-10T09:46:48;-0.20;99.90
13982;DHT22;7065;50.880;5.502;2022-12-10T09:51:59;-0.20;99.90
13982;DHT22;7065;50.880;5.502;2022-12-10T09:54:36;-0.20;99.90
13982;DHT22;7065;50.880;5.502;2022-12-10T09:57:04;-0.10;99.90
13982;DHT22;7065;50.880;5.502;2022-12-10T09:59:36;-0.10;99.90
13982;DHT22;7065;50.880;5.502;2022-12-10T10:04:47;-0.10;99.90
13982;DHT22;7065;50.880;5.502;2022-12-10T10:07:21;0.00;99.90
13982;DHT22;7065;50.880;5.502;2022-12-10T10:09:47;0.00;99.90
13982;DHT22;7065;50.880;5.502;2022-12-10T10:12:14;0.00;99.90
13982;DHT22;7065;50.880;5.502;2022-12-10T10:14:42;0.00;99.90
13982;DHT22;7065;50.880;5.502;2022-12-10T10:17:35;0.00;99.90
13982;DHT22;7065;50.880;5.502;2022-12-10T10:20:01;0.00;99.90
13982;DHT22;7065;50.880;5.502;2022-12-10T10:22:27;-0.10;99.90
13982;DHT22;7065;50.880;5.502;2022-12-10T10:24:53;-0.10;99.90
13982;DHT22;7065;50.880;5.502;2022-12-10T10:27:24;-0.30;99.90
13982;DHT22;7065;50.880;5.502;2022-12-10T10:29:53;-0.30;99.90
13982;DHT22;7065;50.880;5.502;2022-12-10T10:32:21;-0.30;99.90
13982;DHT22;7065;50.880;5.502;2022-12-10T10:34:53;-0.20;99.90
13982;DHT22;7065;50.880;5.502;2022-12-10T10:37:23;-0.10;99.90
13982;DHT22;7065;50.880;5.502;2022-12-10T10:39:51;-0.10;99.90
13982;DHT22;7065;50.880;5.502;2022-12-10T10:42:41;0.00;99.90
13982;DHT22;7065;50.880;5.502;2022-12-10T10:45:37;0.00;99.90
13982;DHT22;7065;50.880;5.502;2022-12-10T10:48:14;0.00;99.90
13982;DHT22;7065;50.880;5.502;2022-12-10T10:50:55;0.00;99.90
13982;DHT22;7065;50.880;5.502;2022-12-10T10:53:30;0.10;99.90
13982;DHT22;7065;50.880;5.502;2022-12-10T10:56:06;0.10;99.90
13982;DHT22;7065;50.880;5.502;2022-12-10T10:58:34;0.00;99.90
13982;DHT22;7065;50.880;5.502;2022-12-10T11:01:05;0.00;99.90
13982;DHT22;7065;50.880;5.502;2022-12-10T11:03:34;0.00;99.90
13982;DHT22;7065;50.880;5.502;2022-12-10T11:06:03;0.10;99.90
13982;DHT22;7065;50.880;5.502;2022-12-10T11:08:31;0.10;99.90
13982;DHT22;7065;50.880;5.502;2022-12-10T11:11:12;0.00;99.90
13982;DHT22;7065;50.880;5.502;2022-12-10T11:13:38;-0.10;99.90
13982;DHT22;7065;50.880;5.502;2022-12-10T11:16:22;0.00;99.90
13982;DHT22;7065;50.880;5.502;2022-12-10T11:18:58;0.00;99.90
13982;DHT22;7065;50.880;5.502;2022-12-10T11:21:31;0.10;99.90
13982;DHT22;7065;50.880;5.502;2022-12-10T11:23:59;0.20;99.90
13982;DHT22;7065;50.880;5.502;2022-12-10T11:37:36;0.20;99.90
13982;DHT22;7065;50.880;5.502;2022-12-10T11:43:01;0.20;99.90
13982;DHT22;7065;50.880;5.502;2022-12-10T11:46:04;0.20;99.90
13982;DHT22;7065;50.880;5.502;2022-12-10T11:51:04;0.20;99.90
13982;DHT22;7065;50.880;5.502;2022-12-10T12:06:58;0.00;99.90
13982;DHT22;7065;50.880;5.502;2022-12-10T12:12:54;-0.10;99.90
13982;DHT22;7065;50.880;5.502;2022-12-10T12:18:06;-0.10;99.90
13982;DHT22;7065;50.880;5.502;2022-12-10T12:20:38;0.00;99.90
13982;DHT22;7065;50.880;5.502;2022-12-10T12:25:48;0.00;99.90
13982;DHT22;7065;50.880;5.502;2022-12-10T12:28:26;0.00;99.90
13982;DHT22;7065;50.880;5.502;2022-12-10T12:30:59;0.10;99.90
13982;DHT22;7065;50.880;5.502;2022-12-10T12:33:42;0.10;99.90
13982;DHT22;7065;50.880;5.502;2022-12-10T12:36:18;0.10;99.90
13982;DHT22;7065;50.880;5.502;2022-12-10T12:38:56;0.10;99.90
13982;DHT22;7065;50.880;5.502;2022-12-10T12:41:32;0.00;99.90
13982;DHT22;7065;50.880;5.502;2022-12-10T12:44:09;0.00;99.90
13982;DHT22;7065;50.880;5.502;2022-12-10T12:46:47;0.10;99.90
13982;DHT22;7065;50.880;5.502;2022-12-10T12:49:24;0.10;99.90
13982;DHT22;7065;50.880;5.502;2022-12-10T12:51:54;0.10;99.90
13982;DHT22;7065;50.880;5.502;2022-12-10T12:54:21;0.10;99.90
13982;DHT22;7065;50.880;5.502;2022-12-10T12:57:03;0.20;99.90
13982;DHT22;7065;50.880;5.502;2022-12-10T13:04:50;0.10;99.90
13982;DHT22;7065;50.880;5.502;2022-12-10T13:09:49;0.10;99.90
13982;DHT22;7065;50.880;5.502;2022-12-10T13:17:26;0.20;99.90
13982;DHT22;7065;50.880;5.502;2022-12-10T13:19:53;0.20;99.90
13982;DHT22;7065;50.880;5.502;2022-12-10T13:22:42;0.20;99.90
13982;DHT22;7065;50.880;5.502;2022-12-10T13:25:15;0.20;99.90
13982;DHT22;7065;50.880;5.502;2022-12-10T13:27:53;0.20;99.90
13982;DHT22;7065;50.880;5.502;2022-12-10T13:30:33;0.20;99.90
13982;DHT22;7065;50.880;5.502;2022-12-10T13:33:14;0.30;99.90
13982;DHT22;7065;50.880;5.502;2022-12-10T13:35:56;0.30;99.90
13982;DHT22;7065;50.880;5.502;2022-12-10T13:38:25;0.30;99.90
13982;DHT22;7065;50.880;5.502;2022-12-10T13:41:04;0.20;99.90
13982;DHT22;7065;50.880;5.502;2022-12-10T13:43:57;0.20;99.90
13982;DHT22;7065;50.880;5.502;2022-12-10T13:46:57;0.30;99.90
13982;DHT22;7065;50.880;5.502;2022-12-10T13:49:29;0.20;99.90
13982;DHT22;7065;50.880;5.502;2022-12-10T13:52:04;0.20;99.90
13982;DHT22;7065;50.880;5.502;2022-12-10T14:00:21;0.30;99.90
13982;DHT22;7065;50.880;5.502;2022-12-10T14:08:02;0.30;99.90
13982;DHT22;7065;50.880;5.502;2022-12-10T14:10:34;0.30;99.90
13982;DHT22;7065;50.880;5.502;2022-12-10T14:13:02;0.30;99.90
13982;DHT22;7065;50.880;5.502;2022-12-10T14:15:29;0.30;99.90
13982;DHT22;7065;50.880;5.502;2022-12-10T14:18:15;0.30;99.90
13982;DHT22;7065;50.880;5.502;2022-12-10T14:20:45;0.30;99.90
13982;DHT22;7065;50.880;5.502;2022-12-10T14:23:32;0.30;99.90
13982;DHT22;7065;50.880;5.502;2022-12-10T14:26:05;0.30;99.90
13982;DHT22;7065;50.880;5.502;2022-12-10T14:28:32;0.30;99.90
13982;DHT22;7065;50.880;5.502;2022-12-10T14:31:02;0.40;99.90
13982;DHT22;7065;50.880;5.502;2022-12-10T14:33:27;0.30;99.90
13982;DHT22;7065;50.880;5.502;2022-12-10T14:35:53;0.30;99.90
13982;DHT22;7065;50.880;5.502;2022-12-10T14:38:27;0.30;99.90
13982;DHT22;7065;50.880;5.502;2022-12-10T14:40:54;0.30;99.90
13982;DHT22;7065;50.880;5.502;2022-12-10T14:43:22;0.30;99.90
13982;DHT22;7065;50.880;5.502;2022-12-10T14:45:59;0.30;99.90
13982;DHT22;7065;50.880;5.502;2022-12-10T14:48:26;0.20;99.90
13982;DHT22;7065;50.880;5.502;2022-12-10T14:50:56;0.20;99.90
13982;DHT22;7065;50.880;5.502;2022-12-10T14:53:28;0.20;99.90
13982;DHT22;7065;50.880;5.502;2022-12-10T14:56:03;0.20;99.90
13982;DHT22;7065;50.880;5.502;2022-12-10T14:58:39;0.20;99.90
13982;DHT22;7065;50.880;5.502;2022-12-10T15:01:05;0.20;99.90
13982;DHT22;7065;50.880;5.502;2022-12-10T15:03:44;0.20;99.90
13982;DHT22;7065;50.880;5.502;2022-12-10T15:06:15;0.20;99.90
13982;DHT22;7065;50.880;5.502;2022-12-10T15:08:42;0.20;99.90
13982;DHT22;7065;50.880;5.502;2022-12-10T15:11:19;0.20;99.90
13982;DHT22;7065;50.880;5.502;2022-12-10T15:13:48;0.20;99.90
13982;DHT22;7065;50.880;5.502;2022-12-10T15:16:41;0.10;99.90
13982;DHT22;7065;50.880;5.502;2022-12-10T15:21:46;0.10;99.90
13982;DHT22;7065;50.880;5.502;2022-12-10T15:24:20;0.10;99.90
13982;DHT22;7065;50.880;5.502;2022-12-10T15:26:50;0.10;99.90
13982;DHT22;7065;50.880;5.502;2022-12-10T15:31:58;0.10;99.90
13982;DHT22;7065;50.880;5.502;2022-12-10T15:34:30;0.10;99.90
13982;DHT22;7065;50.880;5.502;2022-12-10T15:37:03;0.10;99.90
13982;DHT22;7065;50.880;5.502;2022-12-10T15:39:37;0.10;99.90
13982;DHT22;7065;50.880;5.502;2022-12-10T15:42:08;0.10;99.90
13982;DHT22;7065;50.880;5.502;2022-12-10T15:44:39;0.10;99.90
13982;DHT22;7065;50.880;5.502;2022-12-10T15:47:23;0.10;99.90
13982;DHT22;7065;50.880;5.502;2022-12-10T15:49:51;0.10;99.90
13982;DHT22;7065;50.880;5.502;2022-12-10T15:52:25;0.10;99.90
13982;DHT22;7065;50.880;5.502;2022-12-10T15:54:52;0.10;99.90
13982;DHT22;7065;50.880;5.502;2022-12-10T15:59:50;0.10;99.90
13982;DHT22;7065;50.880;5.502;2022-12-10T16:02:43;0.10;99.90
13982;DHT22;7065;50.880;5.502;2022-12-10T16:05:21;0.10;99.90
13982;DHT22;7065;50.880;5.502;2022-12-10T16:07:48;0.10;99.90
13982;DHT22;7065;50.880;5.502;2022-12-10T16:10:17;0.00;99.90
13982;DHT22;7065;50.880;5.502;2022-12-10T16:12:45;-0.10;99.90
13982;DHT22;7065;50.880;5.502;2022-12-10T16:15:22;-0.10;99.90
13982;DHT22;7065;50.880;5.502;2022-12-10T16:17:50;-0.10;99.90
13982;DHT22;7065;50.880;5.502;2022-12-10T16:20:34;-0.10;99.90
13982;DHT22;7065;50.880;5.502;2022-12-10T16:23:00;-0.10;99.90
13982;DHT22;7065;50.880;5.502;2022-12-10T16:25:28;0.00;99.90
13982;DHT22;7065;50.880;5.502;2022-12-10T16:27:55;0.00;99.90
13982;DHT22;7065;50.880;5.502;2022-12-10T16:30:30;0.00;99.90
13982;DHT22;7065;50.880;5.502;2022-12-10T16:32:57;0.10;99.90
13982;DHT22;7065;50.880;5.502;2022-12-10T16:35:22;0.00;99.90
13982;DHT22;7065;50.880;5.502;2022-12-10T16:37:49;0.10;99.90
13982;DHT22;7065;50.880;5.502;2022-12-10T16:40:20;0.10;99.90
13982;DHT22;7065;50.880;5.502;2022-12-10T16:42:47;0.10;99.90
13982;DHT22;7065;50.880;5.502;2022-12-10T16:45:27;0.10;99.90
13982;DHT22;7065;50.880;5.502;2022-12-10T16:47:53;0.10;99.90
13982;DHT22;7065;50.880;5.502;2022-12-10T16:50:20;0.10;99.90
13982;DHT22;7065;50.880;5.502;2022-12-10T16:52:46;0.10;99.90
13982;DHT22;7065;50.880;5.502;2022-12-10T16:55:14;0.10;99.90
13982;DHT22;7065;50.880;5.502;2022-12-10T16:57:40;0.10;99.90
13982;DHT22;7065;50.880;5.502;2022-12-10T17:00:07;0.10;99.90
13982;DHT22;7065;50.880;5.502;2022-12-10T17:02:33;0.10;99.90
13982;DHT22;7065;50.880;5.502;2022-12-10T17:04:58;0.10;99.90
13982;DHT22;7065;50.880;5.502;2022-12-10T17:07:24;0.10;99.90
13982;DHT22;7065;50.880;5.502;2022-12-10T17:09:50;0.10;99.90
13982;DHT22;7065;50.880;5.502;2022-12-10T17:12:16;0.00;99.90
13982;DHT22;7065;50.880;5.502;2022-12-10T17:14:43;0.00;99.90
13982;DHT22;7065;50.880;5.502;2022-12-10T17:17:14;0.00;99.90
13982;DHT22;7065;50.880;5.502;2022-12-10T17:19:41;0.00;99.90
13982;DHT22;7065;50.880;5.502;2022-12-10T17:22:08;0.00;99.90
13982;DHT22;7065;50.880;5.502;2022-12-10T17:24:34;0.00;99.90
13982;DHT22;7065;50.880;5.502;2022-12-10T17:27:06;0.00;99.90
13982;DHT22;7065;50.880;5.502;2022-12-10T17:29:36;0.00;99.90
13982;DHT22;7065;50.880;5.502;2022-12-10T17:32:04;0.00;99.90
13982;DHT22;7065;50.880;5.502;2022-12-10T17:34:30;0.00;99.90
13982;DHT22;7065;50.880;5.502;2022-12-10T17:36:56;0.00;99.90
13982;DHT22;7065;50.880;5.502;2022-12-10T17:39:22;0.00;99.90
13982;DHT22;7065;50.880;5.502;2022-12-10T17:41:51;-0.10;99.90
13982;DHT22;7065;50.880;5.502;2022-12-10T17:44:18;-0.10;99.90